PPR-pyyntö

Ennakkolupa on pakollinen lentoonlähtöjä ja laskuja varten. Pyydä ennakkolupa tästä.

Laskukierrosvaraus

Tee ensin PPR-pyyntö, sitten vasta laskukierrosvaraus. Hinta 5 € / 15 min.

Aerodrome Info

Updated 17 NOV 2017 16:51 LT

  • Some asphalt damage south of RWY 36 threshold.
  • Water pools on aprons and taxiways.
  • Duty officer not present in tower. No lights awailable.
  • Rwy in use

Contact duty officer at +358 20 7545 129 for more information.

Weather


Helsinki Malmi lentokenttä
AWS ILHF 171850Z AUTO 23008KT 9999 BKN033 05/01 Q1002=

METAR EFHK 171850Z 23009KT 9999 BKN037 04/01 Q1002 NOSIG=
TAF EFHK 171732Z 1718/1818 22012KT 9999 SCT020 BECMG 1807/1809 SCT020CB BKN030 TEMPO 1808/1818 20012G22KT 5000 SHRA BKN014 BKN020CB=

Helsinki-Malmin lentoasema

Tervetuloa Helsinki-Malmin lentokentälle

Malmin lentokenttäyhdistys ry on yleishyödyllinen yhdistys, joka toimii Suomen vilkkaimman yleisilmailukentän, Helsinki-Malmin operaattorina. Yhdistyksen toiminnassa ovat mukana kentällä toimivat yhteisöt sekä suuri joukko yleisilmailijoita.

Malmin lentokentän toiminta rahoitetaan jäsen- ja kausikorttimaksuin. Ole mukana jatkamassa Malmin lentotoimintaa ja liity jäseneksi!